< < Back
Terminal Aerodrome Forecast


Current Version              Previous Versions:   1  2  3  4  5  6  7  8  9  

Terminal Aerodrome Forecast

628
FTUS42 KGSP 100533
TAFGSP
TAF
KGSP 100533Z 1006/1106 25005KT P6SM FEW100
     FM101600 27010G18KT P6SM FEW060 SCT120
     FM102300 26006KT P6SM FEW120=



Latest METAR

436
SAUS70 KWBC 101300 RRK
MTRGSP
METAR KGSP 101253Z 27004KT 10SM CLR M06/M10 A2995 RMK AO2 SLP150
T10561100


USA.gov is the U.S. government's official web portal to all federal, state and local government web resources and services.